Olin, Iowa
Current Conditions -  °F | °C
As of 10:15 AM on Wednesday 28 Jan 2015 (Local Time) from KMXO Reporting Station
Clear Clear  
Wind Chill: 18°   Ceiling: Unl
Heat Index: 30°   Visibility: 10mi
Dew Point: 25°   Wind: 18mph
Humidity: 80%   Direction: 140°SE
Pressure: 30.09"   Gusts: 25mph
Location:  42°N, 91.14°W
Report Text: KMXO 281615Z AUTO 14016G22KT 10SM CLR M01/M04 A3009 RMK AO2
Loading
Personal Weather Stations






























Interactive Weather Map New forecast layout! Learn more

10-Day Weather Forecast

Advertisements
Track Severe Weather on mobile